Time;durP1;ratioP1;P1;durP2;ratioP2;P2;SDS_P1;SDS_P2;PMS_P1;PMS_P2;Temp;Humidity;BMP_temperature;BMP_pressure;BME280_temperature;BME280_humidity;BME280_pressure;Samples;Min_cycle;Max_cycle;Signal;HPM_P1;HPM_P2
2023/01/23 00:01:15;;;;;;;;;;;;;;;-1.63;49.19;98990.19;6223507;28;20303;-69
2023/01/23 00:04:16;;;;;;;;;;;;;;;-1.56;48.88;98997.19;6223357;28;19932;-69
2023/01/23 00:07:17;;;;;;;;;;;;;;;-1.42;48.68;98984.53;6222801;28;19925;-68
2023/01/23 00:10:18;;;;;;;;;;;;;;;-1.55;48.43;98986.03;6223097;28;19926;-69
2023/01/23 00:13:22;;;;;;;;;;;;;;;-1.44;48.20;98979.34;6223267;28;20020;-70
2023/01/23 00:16:30;;;;;;;;;;;;;;;-1.37;48.30;98968.25;6223282;28;20008;-69
2023/01/23 00:19:33;;;;;;;;;;;;;;;-1.32;47.59;98980.38;6223069;28;19926;-68
2023/01/23 00:22:34;;;;;;;;;;;;;;;-1.33;47.65;98986.38;6222842;28;19925;-69
2023/01/23 00:25:36;;;;;;;;;;;;;;;-1.24;47.95;98984.84;6222810;28;19988;-69
2023/01/23 00:28:37;;;;;;;;;;;;;;;-1.21;47.37;98984.00;6222113;28;19933;-69
2023/01/23 00:31:39;;;;;;;;;;;;;;;-1.14;47.40;98985.84;6222092;28;20028;-70
2023/01/23 00:34:44;;;;;;;;;;;;;;;-1.10;47.19;98977.31;6222697;28;19925;-69
2023/01/23 00:37:48;;;;;;;;;;;;;;;-1.24;47.32;98974.50;6221644;28;20083;-70
2023/01/23 00:40:55;;;;;;;;;;;;;;;-1.33;47.50;98976.06;6222627;28;19926;-69
2023/01/23 00:43:56;;;;;;;;;;;;;;;-1.34;47.54;98958.81;6222125;28;19940;-69
2023/01/23 00:47:00;;;;;;;;;;;;;;;-1.26;46.77;98955.53;6205566;28;19925;-69
2023/01/23 00:50:03;;;;;;;;;;;;;;;-1.09;46.18;98948.03;6222032;28;19932;-70
2023/01/23 00:53:04;;;;;;;;;;;;;;;-0.96;46.11;98942.19;6222253;28;20314;-69
2023/01/23 00:56:06;;;;;;;;;;;;;;;-0.92;46.13;98931.03;6188377;28;19937;-71
2023/01/23 00:59:07;;;;;;;;;;;;;;;-0.92;46.10;98925.88;6221646;28;19925;-69
2023/01/23 01:02:10;;;;;;;;;;;;;;;-0.75;45.27;98920.06;6221105;28;19948;-69
2023/01/23 01:05:16;;;;;;;;;;;;;;;-0.72;44.75;98927.84;6219964;28;19964;-69
2023/01/23 01:08:17;;;;;;;;;;;;;;;-0.70;45.10;98923.59;6221588;28;19925;-69
2023/01/23 01:11:21;;;;;;;;;;;;;;;-0.65;45.20;98901.25;6221896;28;19925;-70
2023/01/23 01:14:25;;;;;;;;;;;;;;;-0.56;44.29;98909.13;6221426;28;20020;-68
2023/01/23 01:17:26;;;;;;;;;;;;;;;-0.63;45.06;98902.13;6221765;28;20030;-70
2023/01/23 01:20:28;;;;;;;;;;;;;;;-0.64;44.45;98889.19;6221946;28;20414;-69
2023/01/23 01:23:29;;;;;;;;;;;;;;;-0.62;44.13;98893.53;6221461;28;20472;-70
2023/01/23 01:26:33;;;;;;;;;;;;;;;-0.51;43.78;98886.75;6221843;28;19940;-70
2023/01/23 01:29:38;;;;;;;;;;;;;;;-0.62;43.78;98890.94;6221423;28;19929;-70
2023/01/23 01:32:43;;;;;;;;;;;;;;;-0.70;42.96;98879.63;6221598;28;19925;-70
2023/01/23 01:35:47;;;;;;;;;;;;;;;-0.66;43.00;98886.56;6220912;28;20391;-69
2023/01/23 01:38:50;;;;;;;;;;;;;;;-0.68;42.65;98877.91;6220753;28;19968;-69
2023/01/23 01:41:53;;;;;;;;;;;;;;;-0.75;43.16;98881.28;6220651;28;20387;-69
2023/01/23 01:44:59;;;;;;;;;;;;;;;-0.94;43.58;98906.88;6220999;28;19940;-70
2023/01/23 01:48:02;;;;;;;;;;;;;;;-0.93;43.01;98903.47;6220826;28;19932;-70
2023/01/23 01:51:14;;;;;;;;;;;;;;;-0.98;42.83;98915.47;6220291;28;20399;-69
2023/01/23 01:54:34;;;;;;;;;;;;;;;-0.80;41.51;98916.53;6221038;28;19930;-69
2023/01/23 01:57:39;;;;;;;;;;;;;;;-0.91;41.31;98924.16;6220594;28;19937;-70
2023/01/23 02:00:40;;;;;;;;;;;;;;;-0.84;40.79;98922.53;6220755;28;20430;-69
2023/01/23 02:03:45;;;;;;;;;;;;;;;-0.65;39.64;98910.69;6220239;28;19984;-69
2023/01/23 02:06:48;;;;;;;;;;;;;;;-0.80;39.42;98898.44;6220087;28;20425;-69
2023/01/23 02:09:49;;;;;;;;;;;;;;;-0.89;40.08;98904.38;6220616;28;20421;-70
2023/01/23 02:12:54;;;;;;;;;;;;;;;-0.88;39.95;98900.06;6220705;28;19925;-69
2023/01/23 02:15:59;;;;;;;;;;;;;;;-0.95;39.53;98884.50;6220572;28;19932;-70
2023/01/23 02:19:08;;;;;;;;;;;;;;;-1.15;39.75;98891.09;6220673;28;19925;-70
2023/01/23 02:22:14;;;;;;;;;;;;;;;-1.25;40.11;98879.75;6203412;28;19925;-70
2023/01/23 02:25:21;;;;;;;;;;;;;;;-1.29;39.72;98892.63;6220372;28;19925;-69
2023/01/23 02:28:22;;;;;;;;;;;;;;;-1.49;40.13;98885.44;6220426;28;19933;-70
2023/01/23 02:31:24;;;;;;;;;;;;;;;-1.52;39.39;98880.25;6219909;28;20134;-69
2023/01/23 02:34:28;;;;;;;;;;;;;;;-1.47;38.81;98878.59;6220229;28;20044;-70
2023/01/23 02:37:37;;;;;;;;;;;;;;;-1.75;39.80;98886.75;6220319;28;20008;-69
2023/01/23 02:40:39;;;;;;;;;;;;;;;-1.88;39.88;98876.22;6219939;28;19925;-70
2023/01/23 02:43:43;;;;;;;;;;;;;;;-1.99;39.68;98862.25;6220041;28;19929;-69
2023/01/23 02:46:47;;;;;;;;;;;;;;;-2.14;40.37;98869.75;6220181;28;19925;-70
2023/01/23 02:49:51;;;;;;;;;;;;;;;-2.24;40.22;98870.41;6219714;28;19925;-69
2023/01/23 02:52:53;;;;;;;;;;;;;;;-2.28;40.05;98865.22;6219496;28;19925;-69
2023/01/23 02:55:59;;;;;;;;;;;;;;;-2.30;40.47;98861.72;6220516;28;20395;-69
2023/01/23 03:02:26;;;;;;;;;;;;;;;-2.18;38.99;98875.69;6222965;28;20009;-69
2023/01/23 03:05:28;;;;;;;;;;;;;;;-2.07;38.38;98871.56;6224548;28;20421;-70
2023/01/23 03:08:35;;;;;;;;;;;;;;;-2.11;38.26;98872.38;6224065;28;19929;-69
2023/01/23 03:11:39;;;;;;;;;;;;;;;-2.12;38.19;98883.56;6207332;28;19930;-70
2023/01/23 03:14:40;;;;;;;;;;;;;;;-2.02;37.41;98890.59;6224198;28;20287;-69
2023/01/23 03:17:44;;;;;;;;;;;;;;;-2.04;37.35;98879.38;6224258;28;19925;-68
2023/01/23 03:20:45;;;;;;;;;;;;;;;-1.97;36.89;98876.06;6224328;28;20024;-69
2023/01/23 03:23:47;;;;;;;;;;;;;;;-2.10;37.45;98890.44;6223739;28;19925;-69
2023/01/23 03:26:49;;;;;;;;;;;;;;;-2.26;37.66;98889.31;6223468;28;20423;-69
2023/01/23 03:33:12;;;;;;;;;;;;;;;-2.40;37.68;98890.78;6222899;28;20522;-70
2023/01/23 03:36:13;;;;;;;;;;;;;;;-2.48;38.40;98887.19;6223843;28;20019;-69
2023/01/23 03:42:35;;;;;;;;;;;;;;;-2.60;38.13;98884.38;6223713;28;19926;-69
2023/01/23 03:45:36;;;;;;;;;;;;;;;-2.72;38.50;98882.41;6223427;28;19926;-70
2023/01/23 03:48:37;;;;;;;;;;;;;;;-2.64;38.10;98882.56;6223761;28;20324;-71
2023/01/23 03:51:38;;;;;;;;;;;;;;;-2.53;37.96;98878.47;6223314;28;19925;-70
2023/01/23 03:54:39;;;;;;;;;;;;;;;-2.46;37.69;98884.63;6223527;28;19932;-69
2023/01/23 03:57:42;;;;;;;;;;;;;;;-2.54;38.02;98881.91;6223668;28;19925;-69
2023/01/23 04:00:43;;;;;;;;;;;;;;;-2.66;38.03;98891.97;6222685;28;20044;-72
2023/01/23 04:03:44;;;;;;;;;;;;;;;-2.65;37.68;98893.72;6223155;28;19933;-70
2023/01/23 04:06:45;;;;;;;;;;;;;;;-3.01;38.28;98894.69;6222937;28;19921;-70
2023/01/23 04:09:49;;;;;;;;;;;;;;;-3.27;38.92;98897.56;6222501;28;19992;-71
2023/01/23 04:12:55;;;;;;;;;;;;;;;-3.42;39.71;98892.06;6222749;28;19925;-70
2023/01/23 04:15:56;;;;;;;;;;;;;;;-3.54;40.08;98891.78;6223331;28;20378;-70
2023/01/23 04:18:59;;;;;;;;;;;;;;;-3.62;39.99;98884.75;6222517;28;20414;-68
2023/01/23 04:22:03;;;;;;;;;;;;;;;-3.52;40.17;98890.13;6223159;28;20342;-71
2023/01/23 04:25:05;;;;;;;;;;;;;;;-3.43;39.86;98895.47;6222812;28;19956;-70
2023/01/23 04:28:06;;;;;;;;;;;;;;;-3.34;39.76;98898.28;6222807;28;20032;-70
2023/01/23 04:31:10;;;;;;;;;;;;;;;-3.19;39.71;98905.47;6222706;28;20001;-69
2023/01/23 04:34:11;;;;;;;;;;;;;;;-2.99;39.62;98911.06;6222415;28;20039;-70
2023/01/23 04:37:17;;;;;;;;;;;;;;;-2.73;39.52;98912.47;6221286;28;19932;-69
2023/01/23 04:40:21;;;;;;;;;;;;;;;-2.55;38.80;98901.66;6222527;28;19925;-68
2023/01/23 04:43:27;;;;;;;;;;;;;;;-2.42;38.43;98910.50;6223036;28;20443;-70
2023/01/23 04:46:30;;;;;;;;;;;;;;;-2.31;38.93;98908.13;6222048;28;20052;-69
2023/01/23 04:49:36;;;;;;;;;;;;;;;-2.17;38.49;98905.81;6222290;28;20314;-68
2023/01/23 04:52:37;;;;;;;;;;;;;;;-1.98;38.21;98905.31;6221891;28;20450;-69
2023/01/23 04:55:45;;;;;;;;;;;;;;;-1.81;38.12;98908.16;6220404;28;20318;-69
2023/01/23 04:58:48;;;;;;;;;;;;;;;-1.61;37.76;98896.44;6204044;28;19937;-70
2023/01/23 05:01:50;;;;;;;;;;;;;;;-1.40;37.74;98906.22;6221759;28;19925;-69
2023/01/23 05:04:55;;;;;;;;;;;;;;;-1.32;37.15;98906.34;6204925;28;19952;-69
2023/01/23 05:07:59;;;;;;;;;;;;;;;-1.21;37.28;98911.69;6221922;28;19929;-70
2023/01/23 05:11:05;;;;;;;;;;;;;;;-1.05;36.51;98913.63;6221875;28;19925;-69
2023/01/23 05:14:06;;;;;;;;;;;;;;;-0.94;36.39;98912.06;6220745;28;20410;-70
2023/01/23 05:17:09;;;;;;;;;;;;;;;-0.78;36.55;98917.44;6221434;28;19925;-69
2023/01/23 05:20:10;;;;;;;;;;;;;;;-0.59;35.86;98914.25;6221428;28;20307;-70
2023/01/23 05:23:11;;;;;;;;;;;;;;;-0.35;36.33;98910.19;6221690;28;19926;-71
2023/01/23 05:26:12;;;;;;;;;;;;;;;-0.13;36.43;98903.56;6219932;28;19936;-70
2023/01/23 05:29:16;;;;;;;;;;;;;;;0.05;36.20;98902.84;6220247;28;20418;-69
2023/01/23 05:32:17;;;;;;;;;;;;;;;0.22;36.33;98901.28;6220542;28;19935;-70
2023/01/23 05:35:22;;;;;;;;;;;;;;;0.38;35.57;98894.53;6221338;28;19976;-70
2023/01/23 05:38:26;;;;;;;;;;;;;;;0.50;35.19;98898.94;6221030;28;19925;-70
2023/01/23 05:41:30;;;;;;;;;;;;;;;0.75;33.35;98906.03;6221165;28;19925;-70
2023/01/23 05:44:31;;;;;;;;;;;;;;;1.03;31.99;98908.78;6220780;28;19926;-69
2023/01/23 05:47:32;;;;;;;;;;;;;;;1.06;31.02;98908.81;6221096;28;19973;-70
2023/01/23 05:50:33;;;;;;;;;;;;;;;1.19;30.13;98905.44;6220920;28;19933;-69
2023/01/23 05:53:39;;;;;;;;;;;;;;;1.06;30.71;98893.25;6221195;28;20366;-70
2023/01/23 05:56:40;;;;;;;;;;;;;;;1.11;31.42;98904.53;6220615;28;19949;-69
2023/01/23 05:59:43;;;;;;;;;;;;;;;1.38;30.93;98901.19;6220892;28;19929;-70
2023/01/23 06:02:46;;;;;;;;;;;;;;;1.49;30.82;98909.00;6220966;28;19929;-70
2023/01/23 06:05:49;;;;;;;;;;;;;;;1.35;31.33;98907.22;6220346;28;19985;-70
2023/01/23 06:08:52;;;;;;;;;;;;;;;1.55;31.46;98906.44;6220757;28;19925;-70
2023/01/23 06:11:53;;;;;;;;;;;;;;;1.63;31.30;98896.94;6220609;28;19932;-70
2023/01/23 06:14:54;;;;;;;;;;;;;;;1.78;31.38;98912.59;6221020;28;19954;-70
2023/01/23 06:18:00;;;;;;;;;;;;;;;1.72;32.44;98903.91;6220385;28;20338;-69
2023/01/23 06:21:01;;;;;;;;;;;;;;;1.71;32.30;98910.81;6220198;28;19925;-71
2023/01/23 06:24:02;;;;;;;;;;;;;;;1.82;32.65;98905.66;6220494;28;19976;-70
2023/01/23 06:27:07;;;;;;;;;;;;;;;1.97;32.38;98891.84;6220111;28;19933;-70
2023/01/23 06:30:08;;;;;;;;;;;;;;;2.06;32.45;98901.38;6220227;28;20023;-70
2023/01/23 06:33:09;;;;;;;;;;;;;;;2.24;32.39;98909.22;6220463;28;20306;-70
2023/01/23 06:36:16;;;;;;;;;;;;;;;2.40;32.00;98912.66;6221879;28;19926;-71
2023/01/23 06:39:20;;;;;;;;;;;;;;;2.25;32.57;98918.72;6225330;28;19978;-70
2023/01/23 06:42:20;;;;;;;;;;;;;;;2.21;32.68;98917.88;6225378;28;19933;-70
2023/01/23 06:45:25;;;;;;;;;;;;;;;2.19;32.86;98929.97;6225431;28;20307;-71
2023/01/23 06:48:29;;;;;;;;;;;;;;;2.12;32.36;98936.00;6224942;28;20302;-71
2023/01/23 06:51:31;;;;;;;;;;;;;;;2.03;32.96;98923.00;6224334;28;19932;-70
2023/01/23 06:54:32;;;;;;;;;;;;;;;1.94;33.50;98917.81;6225263;28;19925;-71
2023/01/23 06:57:33;;;;;;;;;;;;;;;1.88;33.53;98917.81;6224617;28;19925;-71
2023/01/23 07:00:35;;;;;;;;;;;;;;;1.89;33.36;98912.59;6224822;28;19926;-71
2023/01/23 07:03:43;;;;;;;;;;;;;;;1.99;33.41;98921.28;6225045;28;19925;-71
2023/01/23 07:06:45;;;;;;;;;;;;;;;2.01;33.59;98935.16;6224342;28;19925;-70
2023/01/23 07:09:46;;;;;;;;;;;;;;;2.10;33.41;98934.31;6224041;28;19929;-69
2023/01/23 07:12:49;;;;;;;;;;;;;;;2.24;33.23;98930.84;6224860;28;20024;-71
2023/01/23 07:15:50;;;;;;;;;;;;;;;2.40;33.18;98925.66;6224060;28;20304;-71
2023/01/23 07:18:53;;;;;;;;;;;;;;;2.52;33.12;98923.09;6224554;28;20067;-70
2023/01/23 07:22:00;;;;;;;;;;;;;;;2.61;32.96;98923.09;6224582;28;19925;-70
2023/01/23 07:25:01;;;;;;;;;;;;;;;2.85;32.84;98916.13;6224786;28;19925;-71
2023/01/23 07:28:04;;;;;;;;;;;;;;;4.05;31.68;98917.44;6223897;28;20422;-70
2023/01/23 07:31:06;;;;;;;;;;;;;;;4.88;30.59;98921.16;6223716;28;20023;-70
2023/01/23 07:34:25;;;;;;;;;;;;;;;8.22;27.98;98925.47;6224193;28;19925;-69
2023/01/23 07:37:28;;;;;;;;;;;;;;;11.91;24.71;98927.63;6222114;28;19986;-70
2023/01/23 07:40:30;;;;;;;;;;;;;;;14.26;22.69;98912.44;6223845;28;19925;-70
2023/01/23 07:43:31;;;;;;;;;;;;;;;14.77;22.17;98905.59;6223967;28;19948;-71
2023/01/23 07:46:34;;;;;;;;;;;;;;;14.92;22.19;98929.59;6224149;28;20132;-70
2023/01/23 07:49:35;;;;;;;;;;;;;;;14.96;21.74;98936.50;6222206;28;19972;-70
2023/01/23 07:52:39;;;;;;;;;;;;;;;14.10;22.30;98930.84;6223962;28;19925;-70
2023/01/23 07:55:40;;;;;;;;;;;;;;;13.70;24.36;98937.06;6223332;28;20361;-70
2023/01/23 07:58:47;;;;;;;;;;;;;;;15.07;22.39;98935.97;6223656;28;19925;-71
2023/01/23 08:01:51;;;;;;;;;;;;;;;16.53;23.03;98951.22;6223472;28;20309;-71
2023/01/23 08:04:52;;;;;;;;;;;;;;;16.83;21.48;98942.47;6223375;28;20279;-72
2023/01/23 08:07:57;;;;;;;;;;;;;;;16.79;22.35;98936.47;6223213;28;20374;-70
2023/01/23 08:11:05;;;;;;;;;;;;;;;16.25;21.28;98940.38;6223115;28;19926;-70
2023/01/23 08:14:09;;;;;;;;;;;;;;;15.47;22.31;98934.78;6223288;28;19933;-70
2023/01/23 08:17:10;;;;;;;;;;;;;;;15.01;23.28;98918.56;6222979;28;19925;-69
2023/01/23 08:20:14;;;;;;;;;;;;;;;13.80;25.27;98927.81;6222956;28;19925;-70
2023/01/23 08:23:17;;;;;;;;;;;;;;;12.23;24.35;98906.22;6222506;28;19926;-70
2023/01/23 08:26:24;;;;;;;;;;;;;;;10.65;25.98;98894.28;6223005;28;19932;-71
2023/01/23 08:29:29;;;;;;;;;;;;;;;10.07;25.84;98893.44;6222836;28;20317;-71
2023/01/23 08:32:31;;;;;;;;;;;;;;;9.31;26.83;98899.16;6221686;28;20338;-69
2023/01/23 08:35:32;;;;;;;;;;;;;;;8.44;27.81;98894.41;6222575;28;19932;-70
2023/01/23 08:38:34;;;;;;;;;;;;;;;7.92;28.55;98899.03;6222333;28;19925;-71
2023/01/23 08:41:37;;;;;;;;;;;;;;;7.38;29.19;98900.13;6222527;28;19929;-71
2023/01/23 08:44:38;;;;;;;;;;;;;;;7.40;29.44;98914.06;6222435;28;20414;-70
2023/01/23 08:47:42;;;;;;;;;;;;;;;7.36;29.64;98911.53;6222362;28;20075;-70
2023/01/23 08:50:48;;;;;;;;;;;;;;;8.01;28.83;98906.72;6222355;28;19937;-70
2023/01/23 08:54:02;;;;;;;;;;;;;;;8.06;28.62;98903.97;6204108;28;20012;-71
2023/01/23 08:57:06;;;;;;;;;;;;;;;8.79;28.08;98896.16;6222025;28;19932;-70
2023/01/23 09:00:10;;;;;;;;;;;;;;;9.19;27.40;98900.34;6222340;28;19925;-70
2023/01/23 09:03:12;;;;;;;;;;;;;;;9.01;27.40;98898.22;6221513;28;19933;-71
2023/01/23 09:06:15;;;;;;;;;;;;;;;8.75;27.79;98897.13;6221701;28;20028;-69
2023/01/23 09:09:21;;;;;;;;;;;;;;;8.38;28.38;98897.09;6222264;28;19925;-70
2023/01/23 09:12:24;;;;;;;;;;;;;;;8.15;28.56;98898.50;6221046;28;20399;-71
2023/01/23 09:15:25;;;;;;;;;;;;;;;8.36;28.38;98897.16;6221099;28;19932;-70
2023/01/23 09:18:27;;;;;;;;;;;;;;;8.41;28.37;98900.59;6221361;28;20012;-70
2023/01/23 09:21:30;;;;;;;;;;;;;;;8.17;28.37;98906.34;6221633;28;19926;-70
2023/01/23 09:24:34;;;;;;;;;;;;;;;8.19;28.66;98907.19;6221989;28;20314;-71
2023/01/23 09:27:35;;;;;;;;;;;;;;;9.87;26.94;98894.91;6220857;28;20047;-69
2023/01/23 09:30:41;;;;;;;;;;;;;;;12.34;24.26;98890.81;6221513;28;20395;-70
2023/01/23 09:33:47;;;;;;;;;;;;;;;13.91;22.91;98904.38;6221490;28;20395;-70
2023/01/23 09:36:48;;;;;;;;;;;;;;;14.07;22.11;98904.53;6220977;28;19933;-71
2023/01/23 09:39:51;;;;;;;;;;;;;;;13.76;22.43;98907.72;6220456;28;19926;-71
2023/01/23 09:42:57;;;;;;;;;;;;;;;13.64;22.52;98901.19;6221130;28;19925;-70
2023/01/23 09:46:05;;;;;;;;;;;;;;;12.52;23.00;98898.00;6221510;28;19922;-70
2023/01/23 09:49:13;;;;;;;;;;;;;;;11.09;24.36;98888.41;6220698;28;19948;-70
2023/01/23 09:52:21;;;;;;;;;;;;;;;10.93;25.01;98891.59;6221290;28;20024;-71
2023/01/23 09:55:24;;;;;;;;;;;;;;;11.40;24.61;98893.47;6220735;28;20449;-70
2023/01/23 09:58:46;;;;;;;;;;;;;;;12.02;24.21;98900.84;6220519;28;19932;-70
2023/01/23 10:01:51;;;;;;;;;;;;;;;12.85;23.31;98892.28;6219971;28;20063;-70
2023/01/23 10:04:57;;;;;;;;;;;;;;;13.11;23.37;98907.00;6220977;28;20354;-69
2023/01/23 10:08:14;;;;;;;;;;;;;;;13.41;23.28;98902.19;6202963;28;19929;-70
2023/01/23 10:11:30;;;;;;;;;;;;;;;14.04;22.95;98906.44;6219760;28;20259;-69
2023/01/23 10:14:37;;;;;;;;;;;;;;;15.49;21.69;98898.41;6219257;28;20315;-70
2023/01/23 10:17:47;;;;;;;;;;;;;;;16.84;21.00;98896.31;6220635;28;20016;-70
2023/01/23 10:20:54;;;;;;;;;;;;;;;17.33;20.02;98904.06;6220248;28;19930;-71
2023/01/23 10:24:02;;;;;;;;;;;;;;;17.50;20.87;98905.72;6220434;28;20020;-70
2023/01/23 10:27:33;;;;;;;;;;;;;;;17.37;20.53;98907.38;6218461;28;20019;-70
2023/01/23 10:30:37;;;;;;;;;;;;;;;16.03;21.00;98901.72;6217491;28;19925;-70
2023/01/23 10:37:41;;;;;;;;;;;;;;;13.84;24.10;98904.72;6218587;28;20064;-70
2023/01/23 10:44:25;;;;;;;;;;;;;;;12.71;24.78;98907.81;6219344;28;19936;-71
2023/01/23 10:47:55;;;;;;;;;;;;;;;10.94;26.19;98906.47;6219857;28;20031;-70
2023/01/23 10:51:04;;;;;;;;;;;;;;;9.04;28.52;98911.28;6220288;28;20020;-70
2023/01/23 10:54:07;;;;;;;;;;;;;;;7.80;30.16;98912.41;6219935;28;19929;-71
2023/01/23 10:57:11;;;;;;;;;;;;;;;6.83;31.29;98900.31;6220033;28;19925;-70
2023/01/23 11:00:19;;;;;;;;;;;;;;;6.01;32.39;98901.56;6220135;28;19931;-70
2023/01/23 11:03:20;;;;;;;;;;;;;;;5.46;32.61;98901.38;6219211;28;19925;-71
2023/01/23 11:06:24;;;;;;;;;;;;;;;4.97;33.41;98892.34;6219945;28;20032;-71
2023/01/23 11:09:26;;;;;;;;;;;;;;;4.57;33.52;98894.47;6219953;28;19952;-70
2023/01/23 11:12:32;;;;;;;;;;;;;;;4.18;34.14;98896.50;6219456;28;19926;-70
2023/01/23 11:15:39;;;;;;;;;;;;;;;3.82;34.38;98893.22;6220048;28;20370;-69
2023/01/23 11:18:42;;;;;;;;;;;;;;;3.46;34.54;98894.31;6219928;28;20391;-70
2023/01/23 11:21:55;;;;;;;;;;;;;;;3.21;34.72;98894.38;6202429;28;19925;-69
2023/01/23 11:24:59;;;;;;;;;;;;;;;2.99;35.11;98903.97;6224418;28;19926;-69
2023/01/23 11:28:16;;;;;;;;;;;;;;;2.83;35.10;98897.06;6224382;28;19925;-71
2023/01/23 11:31:19;;;;;;;;;;;;;;;2.70;34.93;98896.22;6224216;28;20019;-70
2023/01/23 11:34:25;;;;;;;;;;;;;;;2.52;34.75;98897.09;6224114;28;19925;-69
2023/01/23 11:37:36;;;;;;;;;;;;;;;2.36;35.41;98898.81;6224028;28;19926;-70
2023/01/23 11:40:37;;;;;;;;;;;;;;;2.19;35.23;98901.41;6223226;28;20306;-70
2023/01/23 11:43:38;;;;;;;;;;;;;;;2.02;35.42;98903.13;6223577;28;19937;-70
2023/01/23 11:47:02;;;;;;;;;;;;;;;1.79;35.34;98903.94;6223820;28;19925;-70
2023/01/23 11:50:09;;;;;;;;;;;;;;;1.52;36.09;98898.66;6212843;28;20016;-71
2023/01/23 11:53:16;;;;;;;;;;;;;;;1.33;36.40;98905.47;6223360;28;19926;-71
2023/01/23 11:56:32;;;;;;;;;;;;;;;1.14;36.35;98907.13;6223192;28;20019;-71
2023/01/23 12:00:06;;;;;;;;;;;;;;;0.92;36.80;98900.09;6222868;28;19948;-71
2023/01/23 12:03:25;;;;;;;;;;;;;;;0.75;36.89;98906.03;6195080;28;19926;-71
2023/01/23 12:06:46;;;;;;;;;;;;;;;0.58;37.14;98894.69;6204125;28;19925;-72
2023/01/23 12:09:55;;;;;;;;;;;;;;;0.33;38.17;98903.97;6222568;28;20071;-71
2023/01/23 12:12:57;;;;;;;;;;;;;;;0.08;38.71;98895.13;6222985;28;19925;-72
2023/01/23 12:16:32;;;;;;;;;;;;;;;-0.08;38.19;98901.88;6222859;28;19968;-71
2023/01/23 12:19:36;;;;;;;;;;;;;;;-0.30;38.29;98895.59;6217891;28;20421;-70
2023/01/23 12:22:40;;;;;;;;;;;;;;;-0.53;38.54;98897.94;6222968;28;19926;-71
2023/01/23 12:25:47;;;;;;;;;;;;;;;-0.72;38.97;98902.00;6222817;28;19925;-71
2023/01/23 12:28:48;;;;;;;;;;;;;;;-0.89;39.01;98903.50;6222797;28;19929;-70
2023/01/23 12:32:24;;;;;;;;;;;;;;;-1.08;39.04;98898.06;6222593;28;19925;-71
2023/01/23 12:35:32;;;;;;;;;;;;;;;-1.33;39.27;98896.00;6210404;28;19925;-70
2023/01/23 12:38:43;;;;;;;;;;;;;;;-1.51;39.73;98902.63;6222006;28;20399;-70
2023/01/23 12:41:57;;;;;;;;;;;;;;;-1.66;39.60;98902.38;6222217;28;19925;-71
2023/01/23 12:45:05;;;;;;;;;;;;;;;-1.87;40.47;98911.50;6222171;28;19925;-71
2023/01/23 12:48:12;;;;;;;;;;;;;;;-1.96;40.25;98919.06;6222114;28;19929;-70
2023/01/23 12:51:29;;;;;;;;;;;;;;;-1.93;41.43;98921.69;6222194;28;19976;-70
2023/01/23 12:54:37;;;;;;;;;;;;;;;-2.12;42.04;98914.50;6222196;28;20338;-70
2023/01/23 12:57:50;;;;;;;;;;;;;;;-2.23;41.71;98914.31;6222039;28;19921;-70
2023/01/23 13:01:02;;;;;;;;;;;;;;;-2.34;42.16;98908.94;6222066;28;19926;-70
2023/01/23 13:04:06;;;;;;;;;;;;;;;-2.42;41.85;98913.06;6221633;28;19926;-70
2023/01/23 13:07:30;;;;;;;;;;;;;;;-2.47;41.16;98908.66;6221864;28;19925;-69
2023/01/23 13:14:24;;;;;;;;;;;;;;;-2.52;42.24;98911.13;6221893;28;19933;-70
2023/01/23 13:17:36;;;;;;;;;;;;;;;-2.61;42.74;98913.53;6220678;28;19925;-70
2023/01/23 13:27:44;;;;;;;;;;;;;;;-2.95;43.61;98905.13;6221504;28;19948;-70
2023/01/23 13:30:57;;;;;;;;;;;;;;;-3.06;43.94;98902.31;6221267;28;19925;-71
2023/01/23 13:33:59;;;;;;;;;;;;;;;-3.08;43.80;98897.97;6221214;28;20020;-71
2023/01/23 13:37:23;;;;;;;;;;;;;;;-3.12;45.11;98901.31;6221430;28;20086;-71
2023/01/23 13:40:24;;;;;;;;;;;;;;;-3.31;44.93;98889.72;6171456;28;19926;-70
2023/01/23 13:43:41;;;;;;;;;;;;;;;-3.39;44.51;98887.88;6187273;28;20363;-70
2023/01/23 13:46:58;;;;;;;;;;;;;;;-3.48;44.61;98884.19;6171610;28;20383;-70
2023/01/23 13:50:10;;;;;;;;;;;;;;;-3.57;44.87;98896.84;6172985;28;19973;-70
2023/01/23 13:56:42;;;;;;;;;;;;;;;-3.42;44.72;98898.09;6172436;28;20414;-71
2023/01/23 13:59:52;;;;;;;;;;;;;;;-3.38;44.87;98899.03;6172691;28;20068;-70
2023/01/23 14:06:30;;;;;;;;;;;;;;;-3.19;45.03;98896.03;6172205;28;19926;-70
2023/01/23 14:09:31;;;;;;;;;;;;;;;-3.27;45.30;98901.84;6172075;28;20004;-70
2023/01/23 14:12:34;;;;;;;;;;;;;;;-3.24;46.23;98902.78;6172262;28;20315;-71
2023/01/23 14:18:59;;;;;;;;;;;;;;;-3.16;44.55;98897.81;6172098;28;19960;-70
2023/01/23 14:22:03;;;;;;;;;;;;;;;-3.18;44.77;98896.91;6171975;28;20020;-69
2023/01/23 14:25:13;;;;;;;;;;;;;;;-3.23;45.34;98894.25;6172120;28;19926;-69
2023/01/23 14:28:17;;;;;;;;;;;;;;;-3.29;45.38;98888.94;6172073;28;19925;-70
2023/01/23 14:31:22;;;;;;;;;;;;;;;-3.29;44.85;98886.34;6172244;28;19926;-70
2023/01/23 14:34:30;;;;;;;;;;;;;;;-3.30;46.16;98887.19;6171996;28;19933;-72
2023/01/23 14:37:59;;;;;;;;;;;;;;;-3.26;44.98;98885.56;6187424;28;19972;-71
2023/01/23 14:41:10;;;;;;;;;;;;;;;-3.24;45.39;98882.19;6220288;28;19925;-71
2023/01/23 14:47:53;;;;;;;;;;;;;;;-3.20;44.92;98884.00;6220368;28;20020;-69
2023/01/23 14:51:17;;;;;;;;;;;;;;;-3.23;45.17;98873.63;6220413;28;19925;-70
2023/01/23 14:54:21;;;;;;;;;;;;;;;-3.29;45.30;98863.19;6220113;28;19929;-70
2023/01/23 14:57:24;;;;;;;;;;;;;;;-3.36;44.96;98870.75;6221417;28;20024;-70
2023/01/23 15:00:30;;;;;;;;;;;;;;;-3.42;44.82;98874.94;6224952;28;19926;-70
2023/01/23 15:03:57;;;;;;;;;;;;;;;-3.44;45.31;98874.00;6224840;28;19925;-70
2023/01/23 15:07:04;;;;;;;;;;;;;;;-3.48;45.21;98861.03;6214882;28;20333;-70
2023/01/23 15:10:17;;;;;;;;;;;;;;;-3.54;45.25;98855.75;6224846;28;20003;-70
2023/01/23 15:13:23;;;;;;;;;;;;;;;-3.70;45.66;98850.25;6224375;28;20034;-70
2023/01/23 15:16:36;;;;;;;;;;;;;;;-3.84;45.20;98859.34;6224673;28;19932;-73
2023/01/23 15:19:44;;;;;;;;;;;;;;;-3.99;45.71;98865.00;6224651;28;19972;-70
2023/01/23 15:22:47;;;;;;;;;;;;;;;-4.08;45.90;98865.66;6224348;28;20033;-69
2023/01/23 15:26:07;;;;;;;;;;;;;;;-4.15;45.99;98871.44;6224375;28;19964;-70
2023/01/23 15:29:10;;;;;;;;;;;;;;;-4.24;46.03;98866.09;6224136;28;19926;-71
2023/01/23 15:32:24;;;;;;;;;;;;;;;-4.30;46.00;98865.94;6223845;28;20395;-71
2023/01/23 15:35:25;;;;;;;;;;;;;;;-4.35;46.08;98867.50;6224026;28;19926;-71
2023/01/23 15:38:28;;;;;;;;;;;;;;;-4.40;46.43;98869.94;6223552;28;20064;-70
2023/01/23 15:41:49;;;;;;;;;;;;;;;-4.47;46.31;98862.91;6223782;28;19932;-71
2023/01/23 15:44:53;;;;;;;;;;;;;;;-4.56;46.53;98863.56;6223544;28;19925;-70
2023/01/23 15:47:54;;;;;;;;;;;;;;;-4.69;46.45;98864.03;6223135;28;20019;-70
2023/01/23 15:50:57;;;;;;;;;;;;;;;-4.73;47.01;98869.91;6223244;28;20394;-70
2023/01/23 15:54:03;;;;;;;;;;;;;;;-4.77;47.17;98870.66;6223737;28;20076;-70
2023/01/23 15:57:08;;;;;;;;;;;;;;;-4.80;46.98;98873.16;6223760;28;19926;-71
2023/01/23 16:00:12;;;;;;;;;;;;;;;-4.74;47.76;98873.31;6222737;28;20462;-70
2023/01/23 16:03:13;;;;;;;;;;;;;;;-4.59;47.11;98863.44;6223714;28;19926;-70
2023/01/23 16:06:17;;;;;;;;;;;;;;;-4.46;46.39;98854.38;6223515;28;20318;-71
2023/01/23 16:09:21;;;;;;;;;;;;;;;-4.39;46.01;98860.53;6222413;28;19929;-70
2023/01/23 16:12:25;;;;;;;;;;;;;;;-4.42;46.32;98855.31;6222952;28;20299;-70
2023/01/23 16:15:31;;;;;;;;;;;;;;;-4.42;46.34;98870.72;6223378;28;20346;-71
2023/01/23 16:18:37;;;;;;;;;;;;;;;-4.40;46.44;98863.94;6223110;28;19925;-70
2023/01/23 16:21:43;;;;;;;;;;;;;;;-4.39;46.72;98860.53;6222565;28;19932;-70
2023/01/23 16:24:47;;;;;;;;;;;;;;;-4.38;46.85;98868.28;6223109;28;19929;-70
2023/01/23 16:27:51;;;;;;;;;;;;;;;-4.35;46.82;98864.94;6223004;28;20366;-70
2023/01/23 16:30:56;;;;;;;;;;;;;;;-4.30;46.68;98871.06;6222966;28;19926;-71
2023/01/23 16:33:59;;;;;;;;;;;;;;;-4.22;46.43;98864.41;6222751;28;19926;-69
2023/01/23 16:37:10;;;;;;;;;;;;;;;-4.17;46.07;98867.09;6222432;28;19925;-72
2023/01/23 16:40:14;;;;;;;;;;;;;;;-4.16;45.83;98858.53;6222377;28;20403;-71
2023/01/23 16:43:20;;;;;;;;;;;;;;;-4.14;46.40;98862.91;6222837;28;19926;-71
2023/01/23 16:46:29;;;;;;;;;;;;;;;-4.10;45.99;98853.59;6222488;28;19925;-71
2023/01/23 16:49:30;;;;;;;;;;;;;;;-4.07;45.76;98859.66;6205061;28;19976;-69
2023/01/23 16:52:36;;;;;;;;;;;;;;;-4.01;45.96;98864.09;6222573;28;19925;-70